sensor_id;sensor_type;location;lat;lon;timestamp;P1;durP1;ratioP1;P2;durP2;ratioP2
72379;SDS011;60354;47.798;12.472;2023-07-13T00:00:28;2.50;;;1.60;;
72379;SDS011;60354;47.798;12.472;2023-07-13T00:02:54;3.03;;;1.50;;
72379;SDS011;60354;47.798;12.472;2023-07-13T00:05:20;3.08;;;1.48;;
72379;SDS011;60354;47.798;12.472;2023-07-13T00:07:46;5.45;;;1.70;;
72379;SDS011;60354;47.798;12.472;2023-07-13T00:10:11;5.63;;;1.70;;
72379;SDS011;60354;47.798;12.472;2023-07-13T00:12:37;3.55;;;1.63;;
72379;SDS011;60354;47.798;12.472;2023-07-13T00:15:05;2.67;;;1.60;;
72379;SDS011;60354;47.798;12.472;2023-07-13T00:17:41;6.15;;;1.70;;
72379;SDS011;60354;47.798;12.472;2023-07-13T00:20:10;3.22;;;1.65;;
72379;SDS011;60354;47.798;12.472;2023-07-13T00:22:36;3.25;;;1.58;;
72379;SDS011;60354;47.798;12.472;2023-07-13T00:25:02;2.58;;;1.50;;
72379;SDS011;60354;47.798;12.472;2023-07-13T00:27:28;3.78;;;1.60;;
72379;SDS011;60354;47.798;12.472;2023-07-13T00:29:56;3.22;;;1.50;;
72379;SDS011;60354;47.798;12.472;2023-07-13T00:32:23;3.13;;;1.40;;
72379;SDS011;60354;47.798;12.472;2023-07-13T00:34:51;3.45;;;1.60;;
72379;SDS011;60354;47.798;12.472;2023-07-13T00:37:17;1.95;;;1.40;;
72379;SDS011;60354;47.798;12.472;2023-07-13T00:39:43;2.38;;;1.30;;
72379;SDS011;60354;47.798;12.472;2023-07-13T00:42:08;2.30;;;1.30;;
72379;SDS011;60354;47.798;12.472;2023-07-13T00:44:34;8.77;;;2.20;;
72379;SDS011;60354;47.798;12.472;2023-07-13T00:47:00;5.20;;;1.60;;
72379;SDS011;60354;47.798;12.472;2023-07-13T00:49:26;2.13;;;1.23;;
72379;SDS011;60354;47.798;12.472;2023-07-13T00:52:04;1.88;;;1.23;;
72379;SDS011;60354;47.798;12.472;2023-07-13T00:54:33;4.25;;;1.35;;
72379;SDS011;60354;47.798;12.472;2023-07-13T00:57:02;2.50;;;1.15;;
72379;SDS011;60354;47.798;12.472;2023-07-13T00:59:33;1.67;;;1.35;;
72379;SDS011;60354;47.798;12.472;2023-07-13T01:02:01;2.35;;;1.33;;
72379;SDS011;60354;47.798;12.472;2023-07-13T01:04:27;3.65;;;1.50;;
72379;SDS011;60354;47.798;12.472;2023-07-13T01:06:54;2.30;;;1.20;;
72379;SDS011;60354;47.798;12.472;2023-07-13T01:09:20;5.18;;;1.30;;
72379;SDS011;60354;47.798;12.472;2023-07-13T01:11:46;2.10;;;1.30;;
72379;SDS011;60354;47.798;12.472;2023-07-13T01:14:12;3.05;;;1.30;;
72379;SDS011;60354;47.798;12.472;2023-07-13T01:16:39;3.15;;;1.40;;
72379;SDS011;60354;47.798;12.472;2023-07-13T01:19:28;2.47;;;1.30;;
72379;SDS011;60354;47.798;12.472;2023-07-13T01:22:05;4.15;;;1.48;;
72379;SDS011;60354;47.798;12.472;2023-07-13T01:24:34;3.10;;;1.48;;
72379;SDS011;60354;47.798;12.472;2023-07-13T01:27:01;1.90;;;1.20;;
72379;SDS011;60354;47.798;12.472;2023-07-13T01:29:30;4.57;;;1.30;;
72379;SDS011;60354;47.798;12.472;2023-07-13T01:31:56;2.30;;;1.23;;
72379;SDS011;60354;47.798;12.472;2023-07-13T01:34:24;1.80;;;1.40;;
72379;SDS011;60354;47.798;12.472;2023-07-13T01:36:50;2.08;;;1.30;;
72379;SDS011;60354;47.798;12.472;2023-07-13T01:39:21;4.57;;;1.30;;
72379;SDS011;60354;47.798;12.472;2023-07-13T01:41:48;3.58;;;1.20;;
72379;SDS011;60354;47.798;12.472;2023-07-13T01:44:13;1.55;;;1.10;;
72379;SDS011;60354;47.798;12.472;2023-07-13T01:46:39;3.08;;;1.23;;
72379;SDS011;60354;47.798;12.472;2023-07-13T01:49:05;2.90;;;1.30;;
72379;SDS011;60354;47.798;12.472;2023-07-13T01:51:30;1.58;;;1.02;;
72379;SDS011;60354;47.798;12.472;2023-07-13T01:53:56;1.70;;;1.20;;
72379;SDS011;60354;47.798;12.472;2023-07-13T01:56:22;4.03;;;1.20;;
72379;SDS011;60354;47.798;12.472;2023-07-13T01:58:48;2.40;;;1.30;;
72379;SDS011;60354;47.798;12.472;2023-07-13T02:01:14;2.17;;;1.10;;
72379;SDS011;60354;47.798;12.472;2023-07-13T02:03:40;1.77;;;1.20;;
72379;SDS011;60354;47.798;12.472;2023-07-13T02:06:05;2.78;;;1.27;;
72379;SDS011;60354;47.798;12.472;2023-07-13T02:08:32;4.35;;;1.30;;
72379;SDS011;60354;47.798;12.472;2023-07-13T02:10:58;3.63;;;1.30;;
72379;SDS011;60354;47.798;12.472;2023-07-13T02:13:24;2.40;;;1.40;;
72379;SDS011;60354;47.798;12.472;2023-07-13T02:15:50;1.75;;;1.13;;
72379;SDS011;60354;47.798;12.472;2023-07-13T02:18:16;1.92;;;1.25;;
72379;SDS011;60354;47.798;12.472;2023-07-13T02:20:42;3.45;;;1.40;;
72379;SDS011;60354;47.798;12.472;2023-07-13T02:23:08;2.65;;;1.40;;
72379;SDS011;60354;47.798;12.472;2023-07-13T02:25:34;2.92;;;1.13;;
72379;SDS011;60354;47.798;12.472;2023-07-13T02:27:59;2.55;;;1.20;;
72379;SDS011;60354;47.798;12.472;2023-07-13T02:30:25;2.05;;;1.20;;
72379;SDS011;60354;47.798;12.472;2023-07-13T02:32:53;3.63;;;1.10;;
72379;SDS011;60354;47.798;12.472;2023-07-13T02:35:18;2.47;;;1.13;;
72379;SDS011;60354;47.798;12.472;2023-07-13T02:37:44;5.38;;;1.20;;
72379;SDS011;60354;47.798;12.472;2023-07-13T02:40:09;3.05;;;1.10;;
72379;SDS011;60354;47.798;12.472;2023-07-13T02:42:35;1.20;;;0.98;;
72379;SDS011;60354;47.798;12.472;2023-07-13T02:45:00;3.78;;;1.20;;
72379;SDS011;60354;47.798;12.472;2023-07-13T02:47:26;1.95;;;1.20;;
72379;SDS011;60354;47.798;12.472;2023-07-13T02:49:52;4.45;;;1.10;;
72379;SDS011;60354;47.798;12.472;2023-07-13T02:52:17;1.40;;;1.08;;
72379;SDS011;60354;47.798;12.472;2023-07-13T02:54:43;1.38;;;1.05;;
72379;SDS011;60354;47.798;12.472;2023-07-13T02:57:09;1.13;;;1.00;;
72379;SDS011;60354;47.798;12.472;2023-07-13T02:59:35;1.88;;;0.98;;
72379;SDS011;60354;47.798;12.472;2023-07-13T03:02:01;1.60;;;1.00;;
72379;SDS011;60354;47.798;12.472;2023-07-13T03:04:28;3.50;;;0.90;;
72379;SDS011;60354;47.798;12.472;2023-07-13T03:06:54;1.40;;;0.90;;
72379;SDS011;60354;47.798;12.472;2023-07-13T03:09:24;2.88;;;1.02;;
72379;SDS011;60354;47.798;12.472;2023-07-13T03:11:53;2.67;;;1.20;;
72379;SDS011;60354;47.798;12.472;2023-07-13T03:14:25;0.95;;;0.82;;
72379;SDS011;60354;47.798;12.472;2023-07-13T03:16:51;4.32;;;1.00;;
72379;SDS011;60354;47.798;12.472;2023-07-13T03:19:18;4.28;;;1.10;;
72379;SDS011;60354;47.798;12.472;2023-07-13T03:21:48;1.50;;;0.93;;
72379;SDS011;60354;47.798;12.472;2023-07-13T03:24:14;1.45;;;0.90;;
72379;SDS011;60354;47.798;12.472;2023-07-13T03:26:41;1.48;;;0.90;;
72379;SDS011;60354;47.798;12.472;2023-07-13T03:29:06;1.38;;;0.90;;
72379;SDS011;60354;47.798;12.472;2023-07-13T03:31:33;1.92;;;0.90;;
72379;SDS011;60354;47.798;12.472;2023-07-13T03:34:00;2.05;;;1.20;;
72379;SDS011;60354;47.798;12.472;2023-07-13T03:36:29;1.20;;;0.98;;
72379;SDS011;60354;47.798;12.472;2023-07-13T03:38:59;1.48;;;1.02;;
72379;SDS011;60354;47.798;12.472;2023-07-13T03:41:44;1.20;;;0.93;;
72379;SDS011;60354;47.798;12.472;2023-07-13T03:44:11;2.72;;;1.10;;
72379;SDS011;60354;47.798;12.472;2023-07-13T03:46:37;4.07;;;1.00;;
72379;SDS011;60354;47.798;12.472;2023-07-13T03:49:03;1.80;;;1.10;;
72379;SDS011;60354;47.798;12.472;2023-07-13T03:51:30;5.55;;;1.23;;
72379;SDS011;60354;47.798;12.472;2023-07-13T03:53:56;2.88;;;1.10;;
72379;SDS011;60354;47.798;12.472;2023-07-13T03:56:22;1.30;;;1.20;;
72379;SDS011;60354;47.798;12.472;2023-07-13T03:58:48;2.50;;;1.05;;
72379;SDS011;60354;47.798;12.472;2023-07-13T04:01:20;2.00;;;1.00;;
72379;SDS011;60354;47.798;12.472;2023-07-13T04:03:47;1.80;;;0.95;;
72379;SDS011;60354;47.798;12.472;2023-07-13T04:06:14;2.50;;;1.05;;
72379;SDS011;60354;47.798;12.472;2023-07-13T04:08:50;1.33;;;1.10;;
72379;SDS011;60354;47.798;12.472;2023-07-13T04:11:20;4.63;;;1.17;;
72379;SDS011;60354;47.798;12.472;2023-07-13T04:13:46;4.28;;;1.10;;
72379;SDS011;60354;47.798;12.472;2023-07-13T04:16:13;3.53;;;1.10;;
72379;SDS011;60354;47.798;12.472;2023-07-13T04:18:39;1.65;;;1.10;;
72379;SDS011;60354;47.798;12.472;2023-07-13T04:21:06;1.85;;;1.02;;
72379;SDS011;60354;47.798;12.472;2023-07-13T04:23:32;0.90;;;0.80;;
72379;SDS011;60354;47.798;12.472;2023-07-13T04:25:57;1.27;;;0.93;;
72379;SDS011;60354;47.798;12.472;2023-07-13T04:28:23;1.75;;;1.10;;
72379;SDS011;60354;47.798;12.472;2023-07-13T04:30:50;2.35;;;1.13;;
72379;SDS011;60354;47.798;12.472;2023-07-13T04:33:16;4.07;;;1.20;;
72379;SDS011;60354;47.798;12.472;2023-07-13T04:35:42;2.20;;;1.10;;
72379;SDS011;60354;47.798;12.472;2023-07-13T04:38:08;2.65;;;1.30;;
72379;SDS011;60354;47.798;12.472;2023-07-13T04:40:36;1.42;;;1.00;;
72379;SDS011;60354;47.798;12.472;2023-07-13T04:43:02;3.13;;;1.10;;
72379;SDS011;60354;47.798;12.472;2023-07-13T04:45:28;1.63;;;1.20;;
72379;SDS011;60354;47.798;12.472;2023-07-13T04:47:53;2.60;;;1.15;;
72379;SDS011;60354;47.798;12.472;2023-07-13T04:50:19;3.28;;;1.10;;
72379;SDS011;60354;47.798;12.472;2023-07-13T04:52:51;2.40;;;1.20;;
72379;SDS011;60354;47.798;12.472;2023-07-13T04:55:17;0.90;;;0.90;;
72379;SDS011;60354;47.798;12.472;2023-07-13T04:57:43;2.40;;;1.20;;
72379;SDS011;60354;47.798;12.472;2023-07-13T05:00:09;3.45;;;1.10;;
72379;SDS011;60354;47.798;12.472;2023-07-13T05:02:37;1.40;;;1.02;;
72379;SDS011;60354;47.798;12.472;2023-07-13T05:05:03;2.75;;;1.00;;
72379;SDS011;60354;47.798;12.472;2023-07-13T05:07:29;3.45;;;1.20;;
72379;SDS011;60354;47.798;12.472;2023-07-13T05:09:55;2.20;;;1.13;;
72379;SDS011;60354;47.798;12.472;2023-07-13T05:12:21;3.78;;;1.15;;
72379;SDS011;60354;47.798;12.472;2023-07-13T05:14:46;1.42;;;1.00;;
72379;SDS011;60354;47.798;12.472;2023-07-13T05:17:13;2.10;;;1.20;;
72379;SDS011;60354;47.798;12.472;2023-07-13T05:19:39;2.92;;;1.52;;
72379;SDS011;60354;47.798;12.472;2023-07-13T05:22:04;2.72;;;1.20;;
72379;SDS011;60354;47.798;12.472;2023-07-13T05:24:30;1.90;;;1.25;;
72379;SDS011;60354;47.798;12.472;2023-07-13T05:26:56;1.55;;;1.20;;
72379;SDS011;60354;47.798;12.472;2023-07-13T05:29:21;2.72;;;1.30;;
72379;SDS011;60354;47.798;12.472;2023-07-13T05:31:47;3.67;;;1.55;;
72379;SDS011;60354;47.798;12.472;2023-07-13T05:34:14;2.60;;;1.60;;
72379;SDS011;60354;47.798;12.472;2023-07-13T05:36:39;2.72;;;1.50;;
72379;SDS011;60354;47.798;12.472;2023-07-13T05:39:05;2.35;;;1.60;;
72379;SDS011;60354;47.798;12.472;2023-07-13T05:41:31;3.30;;;1.70;;
72379;SDS011;60354;47.798;12.472;2023-07-13T05:43:56;5.40;;;1.90;;
72379;SDS011;60354;47.798;12.472;2023-07-13T05:46:22;6.97;;;2.40;;
72379;SDS011;60354;47.798;12.472;2023-07-13T05:48:47;3.95;;;2.10;;
72379;SDS011;60354;47.798;12.472;2023-07-13T05:51:13;3.40;;;2.05;;
72379;SDS011;60354;47.798;12.472;2023-07-13T05:53:39;6.97;;;2.55;;
72379;SDS011;60354;47.798;12.472;2023-07-13T05:56:04;3.33;;;2.00;;
72379;SDS011;60354;47.798;12.472;2023-07-13T05:58:30;6.28;;;2.20;;
72379;SDS011;60354;47.798;12.472;2023-07-13T06:00:59;6.00;;;2.10;;
72379;SDS011;60354;47.798;12.472;2023-07-13T06:03:27;4.60;;;1.90;;
72379;SDS011;60354;47.798;12.472;2023-07-13T06:05:52;2.97;;;1.77;;
72379;SDS011;60354;47.798;12.472;2023-07-13T06:08:17;3.92;;;1.92;;
72379;SDS011;60354;47.798;12.472;2023-07-13T06:10:43;2.55;;;1.88;;
72379;SDS011;60354;47.798;12.472;2023-07-13T06:13:08;2.53;;;1.80;;
72379;SDS011;60354;47.798;12.472;2023-07-13T06:15:34;4.85;;;1.70;;
72379;SDS011;60354;47.798;12.472;2023-07-13T06:17:59;5.18;;;2.20;;
72379;SDS011;60354;47.798;12.472;2023-07-13T06:20:25;4.43;;;2.25;;
72379;SDS011;60354;47.798;12.472;2023-07-13T06:22:50;2.80;;;1.90;;
72379;SDS011;60354;47.798;12.472;2023-07-13T06:25:16;3.15;;;1.88;;
72379;SDS011;60354;47.798;12.472;2023-07-13T06:27:42;3.67;;;1.77;;
72379;SDS011;60354;47.798;12.472;2023-07-13T06:30:08;4.50;;;2.15;;
72379;SDS011;60354;47.798;12.472;2023-07-13T06:32:34;3.78;;;1.90;;
72379;SDS011;60354;47.798;12.472;2023-07-13T06:34:59;3.15;;;1.80;;
72379;SDS011;60354;47.798;12.472;2023-07-13T06:37:25;3.22;;;1.70;;
72379;SDS011;60354;47.798;12.472;2023-07-13T06:39:50;4.50;;;1.77;;
72379;SDS011;60354;47.798;12.472;2023-07-13T06:42:16;1.95;;;1.20;;
72379;SDS011;60354;47.798;12.472;2023-07-13T06:44:42;3.10;;;1.50;;
72379;SDS011;60354;47.798;12.472;2023-07-13T06:47:08;2.63;;;1.70;;
72379;SDS011;60354;47.798;12.472;2023-07-13T06:49:33;2.80;;;1.80;;
72379;SDS011;60354;47.798;12.472;2023-07-13T06:51:59;3.10;;;1.77;;
72379;SDS011;60354;47.798;12.472;2023-07-13T06:54:24;3.17;;;1.75;;
72379;SDS011;60354;47.798;12.472;2023-07-13T06:56:50;2.97;;;1.80;;
72379;SDS011;60354;47.798;12.472;2023-07-13T06:59:15;3.60;;;1.60;;
72379;SDS011;60354;47.798;12.472;2023-07-13T07:01:41;3.70;;;1.27;;
72379;SDS011;60354;47.798;12.472;2023-07-13T07:04:06;3.05;;;1.52;;
72379;SDS011;60354;47.798;12.472;2023-07-13T07:06:32;3.53;;;1.70;;
72379;SDS011;60354;47.798;12.472;2023-07-13T07:08:57;3.15;;;1.77;;
72379;SDS011;60354;47.798;12.472;2023-07-13T07:11:24;2.85;;;1.77;;
72379;SDS011;60354;47.798;12.472;2023-07-13T07:13:51;2.90;;;1.70;;
72379;SDS011;60354;47.798;12.472;2023-07-13T07:16:18;2.97;;;1.60;;
72379;SDS011;60354;47.798;12.472;2023-07-13T07:18:44;2.58;;;1.70;;
72379;SDS011;60354;47.798;12.472;2023-07-13T07:21:10;2.33;;;1.50;;
72379;SDS011;60354;47.798;12.472;2023-07-13T07:23:37;4.93;;;1.50;;
72379;SDS011;60354;47.798;12.472;2023-07-13T07:26:02;2.35;;;1.60;;
72379;SDS011;60354;47.798;12.472;2023-07-13T07:28:28;3.10;;;1.67;;
72379;SDS011;60354;47.798;12.472;2023-07-13T07:30:57;3.03;;;1.50;;
72379;SDS011;60354;47.798;12.472;2023-07-13T07:33:23;2.05;;;1.50;;
72379;SDS011;60354;47.798;12.472;2023-07-13T07:35:49;3.70;;;1.52;;
72379;SDS011;60354;47.798;12.472;2023-07-13T07:38:15;2.35;;;1.70;;
72379;SDS011;60354;47.798;12.472;2023-07-13T07:40:41;2.72;;;1.50;;
72379;SDS011;60354;47.798;12.472;2023-07-13T07:43:07;3.90;;;1.50;;
72379;SDS011;60354;47.798;12.472;2023-07-13T07:45:33;3.08;;;1.73;;
72379;SDS011;60354;47.798;12.472;2023-07-13T07:47:59;3.85;;;1.90;;
72379;SDS011;60354;47.798;12.472;2023-07-13T07:50:25;3.25;;;1.60;;
72379;SDS011;60354;47.798;12.472;2023-07-13T07:52:51;2.20;;;1.60;;
72379;SDS011;60354;47.798;12.472;2023-07-13T07:55:16;4.55;;;1.70;;
72379;SDS011;60354;47.798;12.472;2023-07-13T07:57:42;2.92;;;1.70;;
72379;SDS011;60354;47.798;12.472;2023-07-13T08:00:07;3.00;;;1.60;;
72379;SDS011;60354;47.798;12.472;2023-07-13T08:02:39;3.40;;;1.80;;
72379;SDS011;60354;47.798;12.472;2023-07-13T08:05:06;2.28;;;1.60;;
72379;SDS011;60354;47.798;12.472;2023-07-13T08:07:33;2.90;;;2.03;;
72379;SDS011;60354;47.798;12.472;2023-07-13T08:09:59;2.92;;;1.90;;
72379;SDS011;60354;47.798;12.472;2023-07-13T08:12:24;2.78;;;1.83;;
72379;SDS011;60354;47.798;12.472;2023-07-13T08:14:50;4.30;;;1.98;;
72379;SDS011;60354;47.798;12.472;2023-07-13T08:17:19;3.13;;;2.10;;
72379;SDS011;60354;47.798;12.472;2023-07-13T08:19:45;3.45;;;1.80;;
72379;SDS011;60354;47.798;12.472;2023-07-13T08:22:11;3.85;;;2.38;;
72379;SDS011;60354;47.798;12.472;2023-07-13T08:24:36;2.70;;;1.80;;
72379;SDS011;60354;47.798;12.472;2023-07-13T08:27:02;3.30;;;1.60;;
72379;SDS011;60354;47.798;12.472;2023-07-13T08:29:28;3.63;;;1.80;;
72379;SDS011;60354;47.798;12.472;2023-07-13T08:31:53;3.08;;;1.73;;
72379;SDS011;60354;47.798;12.472;2023-07-13T08:34:19;3.25;;;1.60;;
72379;SDS011;60354;47.798;12.472;2023-07-13T08:36:45;3.97;;;2.30;;
72379;SDS011;60354;47.798;12.472;2023-07-13T08:39:11;4.43;;;2.00;;
72379;SDS011;60354;47.798;12.472;2023-07-13T08:41:36;3.95;;;2.10;;
72379;SDS011;60354;47.798;12.472;2023-07-13T08:44:02;3.15;;;1.85;;
72379;SDS011;60354;47.798;12.472;2023-07-13T08:46:35;3.30;;;1.83;;
72379;SDS011;60354;47.798;12.472;2023-07-13T08:49:06;4.28;;;1.70;;
72379;SDS011;60354;47.798;12.472;2023-07-13T08:54:27;2.67;;;1.70;;
72379;SDS011;60354;47.798;12.472;2023-07-13T08:56:56;2.15;;;1.70;;
72379;SDS011;60354;47.798;12.472;2023-07-13T08:59:27;3.28;;;1.90;;
72379;SDS011;60354;47.798;12.472;2023-07-13T09:02:15;3.10;;;1.90;;
72379;SDS011;60354;47.798;12.472;2023-07-13T09:05:14;4.03;;;1.98;;
72379;SDS011;60354;47.798;12.472;2023-07-13T09:10:17;3.85;;;1.65;;
72379;SDS011;60354;47.798;12.472;2023-07-13T09:15:39;3.95;;;1.83;;
72379;SDS011;60354;47.798;12.472;2023-07-13T09:20:54;4.85;;;1.88;;
72379;SDS011;60354;47.798;12.472;2023-07-13T09:23:22;3.55;;;1.95;;
72379;SDS011;60354;47.798;12.472;2023-07-13T09:25:49;2.97;;;1.70;;
72379;SDS011;60354;47.798;12.472;2023-07-13T09:28:22;4.97;;;2.10;;
72379;SDS011;60354;47.798;12.472;2023-07-13T09:31:01;3.55;;;1.90;;
72379;SDS011;60354;47.798;12.472;2023-07-13T09:33:31;3.10;;;1.70;;
72379;SDS011;60354;47.798;12.472;2023-07-13T09:35:57;4.00;;;2.00;;
72379;SDS011;60354;47.798;12.472;2023-07-13T09:38:28;3.92;;;1.83;;
72379;SDS011;60354;47.798;12.472;2023-07-13T09:41:15;6.60;;;1.90;;
72379;SDS011;60354;47.798;12.472;2023-07-13T09:46:37;3.55;;;1.85;;
72379;SDS011;60354;47.798;12.472;2023-07-13T09:49:17;5.57;;;1.92;;
72379;SDS011;60354;47.798;12.472;2023-07-13T09:51:43;3.55;;;1.83;;
72379;SDS011;60354;47.798;12.472;2023-07-13T09:54:17;3.25;;;1.77;;
72379;SDS011;60354;47.798;12.472;2023-07-13T09:56:44;4.85;;;1.88;;
72379;SDS011;60354;47.798;12.472;2023-07-13T09:59:23;6.95;;;1.60;;
72379;SDS011;60354;47.798;12.472;2023-07-13T10:01:54;3.30;;;2.00;;
72379;SDS011;60354;47.798;12.472;2023-07-13T10:04:26;3.78;;;1.90;;
72379;SDS011;60354;47.798;12.472;2023-07-13T10:07:06;7.25;;;2.17;;
72379;SDS011;60354;47.798;12.472;2023-07-13T10:09:33;4.72;;;1.95;;
72379;SDS011;60354;47.798;12.472;2023-07-13T10:11:58;3.58;;;1.90;;
72379;SDS011;60354;47.798;12.472;2023-07-13T10:14:24;3.97;;;2.10;;
72379;SDS011;60354;47.798;12.472;2023-07-13T10:16:52;5.63;;;2.00;;
72379;SDS011;60354;47.798;12.472;2023-07-13T10:19:25;3.63;;;2.20;;
72379;SDS011;60354;47.798;12.472;2023-07-13T10:24:28;5.45;;;2.50;;
72379;SDS011;60354;47.798;12.472;2023-07-13T10:27:05;5.03;;;2.25;;
72379;SDS011;60354;47.798;12.472;2023-07-13T10:29:41;4.63;;;2.22;;
72379;SDS011;60354;47.798;12.472;2023-07-13T10:32:11;4.65;;;2.28;;
72379;SDS011;60354;47.798;12.472;2023-07-13T10:34:38;5.15;;;2.20;;
72379;SDS011;60354;47.798;12.472;2023-07-13T10:37:05;4.38;;;2.30;;
72379;SDS011;60354;47.798;12.472;2023-07-13T10:39:36;3.22;;;2.25;;
72379;SDS011;60354;47.798;12.472;2023-07-13T10:42:05;2.80;;;2.10;;
72379;SDS011;60354;47.798;12.472;2023-07-13T10:44:37;4.97;;;2.10;;
72379;SDS011;60354;47.798;12.472;2023-07-13T10:47:04;3.88;;;1.83;;
72379;SDS011;60354;47.798;12.472;2023-07-13T10:49:33;5.18;;;1.90;;
72379;SDS011;60354;47.798;12.472;2023-07-13T10:52:00;4.88;;;2.22;;
72379;SDS011;60354;47.798;12.472;2023-07-13T11:02:28;4.53;;;2.20;;
72379;SDS011;60354;47.798;12.472;2023-07-13T11:04:54;10.82;;;2.30;;
72379;SDS011;60354;47.798;12.472;2023-07-13T11:07:27;4.45;;;1.90;;
72379;SDS011;60354;47.798;12.472;2023-07-13T11:09:55;4.53;;;2.08;;
72379;SDS011;60354;47.798;12.472;2023-07-13T11:17:36;5.63;;;2.13;;
72379;SDS011;60354;47.798;12.472;2023-07-13T11:27:52;4.70;;;2.17;;
72379;SDS011;60354;47.798;12.472;2023-07-13T11:30:36;6.22;;;2.20;;
72379;SDS011;60354;47.798;12.472;2023-07-13T11:33:10;6.80;;;1.95;;
72379;SDS011;60354;47.798;12.472;2023-07-13T11:35:51;5.78;;;1.67;;
72379;SDS011;60354;47.798;12.472;2023-07-13T11:38:29;7.88;;;1.75;;
72379;SDS011;60354;47.798;12.472;2023-07-13T11:40:55;3.88;;;1.80;;
72379;SDS011;60354;47.798;12.472;2023-07-13T11:43:23;3.33;;;1.80;;
72379;SDS011;60354;47.798;12.472;2023-07-13T11:45:49;3.88;;;1.67;;
72379;SDS011;60354;47.798;12.472;2023-07-13T11:48:23;8.15;;;1.98;;
72379;SDS011;60354;47.798;12.472;2023-07-13T11:50:55;3.75;;;1.70;;
72379;SDS011;60354;47.798;12.472;2023-07-13T11:53:25;6.05;;;2.15;;
72379;SDS011;60354;47.798;12.472;2023-07-13T11:55:52;4.80;;;2.10;;
72379;SDS011;60354;47.798;12.472;2023-07-13T11:58:19;3.50;;;1.90;;
72379;SDS011;60354;47.798;12.472;2023-07-13T12:00:48;4.20;;;1.85;;
72379;SDS011;60354;47.798;12.472;2023-07-13T12:03:15;3.42;;;2.00;;
72379;SDS011;60354;47.798;12.472;2023-07-13T12:05:59;6.15;;;2.10;;
72379;SDS011;60354;47.798;12.472;2023-07-13T12:08:30;6.18;;;2.53;;
72379;SDS011;60354;47.798;12.472;2023-07-13T12:11:03;5.63;;;2.53;;
72379;SDS011;60354;47.798;12.472;2023-07-13T12:13:36;3.08;;;2.00;;
72379;SDS011;60354;47.798;12.472;2023-07-13T12:16:08;5.22;;;2.33;;
72379;SDS011;60354;47.798;12.472;2023-07-13T12:21:03;5.50;;;2.17;;
72379;SDS011;60354;47.798;12.472;2023-07-13T12:23:30;4.50;;;2.03;;
72379;SDS011;60354;47.798;12.472;2023-07-13T12:25:59;5.75;;;2.60;;
72379;SDS011;60354;47.798;12.472;2023-07-13T12:28:35;5.20;;;1.98;;
72379;SDS011;60354;47.798;12.472;2023-07-13T12:31:03;5.65;;;2.28;;
72379;SDS011;60354;47.798;12.472;2023-07-13T12:33:47;3.95;;;2.13;;
72379;SDS011;60354;47.798;12.472;2023-07-13T12:36:12;5.07;;;2.17;;
72379;SDS011;60354;47.798;12.472;2023-07-13T12:38:38;5.47;;;2.10;;
72379;SDS011;60354;47.798;12.472;2023-07-13T12:41:05;3.92;;;1.80;;
72379;SDS011;60354;47.798;12.472;2023-07-13T12:43:35;4.45;;;1.70;;
72379;SDS011;60354;47.798;12.472;2023-07-13T12:46:18;4.50;;;1.80;;
72379;SDS011;60354;47.798;12.472;2023-07-13T12:48:56;3.17;;;1.40;;
72379;SDS011;60354;47.798;12.472;2023-07-13T12:51:26;6.25;;;1.50;;
72379;SDS011;60354;47.798;12.472;2023-07-13T12:53:58;2.50;;;1.55;;
72379;SDS011;60354;47.798;12.472;2023-07-13T12:56:44;3.38;;;1.60;;
72379;SDS011;60354;47.798;12.472;2023-07-13T12:59:18;4.00;;;1.63;;
72379;SDS011;60354;47.798;12.472;2023-07-13T13:01:46;3.50;;;1.58;;
72379;SDS011;60354;47.798;12.472;2023-07-13T13:04:12;5.68;;;1.70;;
72379;SDS011;60354;47.798;12.472;2023-07-13T13:06:38;3.33;;;1.55;;
72379;SDS011;60354;47.798;12.472;2023-07-13T13:09:09;2.90;;;1.63;;
72379;SDS011;60354;47.798;12.472;2023-07-13T13:11:38;3.88;;;1.75;;
72379;SDS011;60354;47.798;12.472;2023-07-13T13:14:05;4.00;;;1.52;;
72379;SDS011;60354;47.798;12.472;2023-07-13T13:16:33;3.58;;;1.50;;
72379;SDS011;60354;47.798;12.472;2023-07-13T13:19:21;3.28;;;1.40;;
72379;SDS011;60354;47.798;12.472;2023-07-13T13:21:49;6.57;;;1.65;;
72379;SDS011;60354;47.798;12.472;2023-07-13T13:24:19;3.65;;;1.70;;
72379;SDS011;60354;47.798;12.472;2023-07-13T13:26:46;3.28;;;1.50;;
72379;SDS011;60354;47.798;12.472;2023-07-13T13:29:21;3.15;;;1.70;;
72379;SDS011;60354;47.798;12.472;2023-07-13T13:31:51;3.60;;;1.50;;
72379;SDS011;60354;47.798;12.472;2023-07-13T13:34:18;4.63;;;1.70;;
72379;SDS011;60354;47.798;12.472;2023-07-13T13:36:46;1.92;;;1.48;;
72379;SDS011;60354;47.798;12.472;2023-07-13T13:41:53;4.82;;;1.58;;
72379;SDS011;60354;47.798;12.472;2023-07-13T13:44:20;5.30;;;1.85;;
72379;SDS011;60354;47.798;12.472;2023-07-13T13:46:56;4.28;;;1.60;;
72379;SDS011;60354;47.798;12.472;2023-07-13T13:49:24;2.70;;;1.40;;
72379;SDS011;60354;47.798;12.472;2023-07-13T13:51:51;3.17;;;1.48;;
72379;SDS011;60354;47.798;12.472;2023-07-13T13:54:18;5.38;;;1.45;;
72379;SDS011;60354;47.798;12.472;2023-07-13T13:56:46;2.92;;;1.77;;
72379;SDS011;60354;47.798;12.472;2023-07-13T13:59:13;2.28;;;1.45;;
72379;SDS011;60354;47.798;12.472;2023-07-13T14:01:39;8.15;;;1.60;;
72379;SDS011;60354;47.798;12.472;2023-07-13T14:04:08;2.72;;;1.50;;
72379;SDS011;60354;47.798;12.472;2023-07-13T14:06:39;3.30;;;1.90;;
72379;SDS011;60354;47.798;12.472;2023-07-13T14:09:05;3.28;;;1.65;;
72379;SDS011;60354;47.798;12.472;2023-07-13T14:11:36;2.95;;;1.63;;
72379;SDS011;60354;47.798;12.472;2023-07-13T14:14:02;2.45;;;1.40;;
72379;SDS011;60354;47.798;12.472;2023-07-13T14:16:30;2.83;;;1.27;;
72379;SDS011;60354;47.798;12.472;2023-07-13T14:18:57;3.42;;;1.45;;
72379;SDS011;60354;47.798;12.472;2023-07-13T14:21:25;6.18;;;1.50;;
72379;SDS011;60354;47.798;12.472;2023-07-13T14:23:52;5.10;;;1.45;;
72379;SDS011;60354;47.798;12.472;2023-07-13T14:26:21;3.03;;;1.50;;
72379;SDS011;60354;47.798;12.472;2023-07-13T14:28:50;3.58;;;1.60;;
72379;SDS011;60354;47.798;12.472;2023-07-13T14:31:18;2.67;;;1.42;;
72379;SDS011;60354;47.798;12.472;2023-07-13T14:33:44;2.83;;;1.40;;
72379;SDS011;60354;47.798;12.472;2023-07-13T14:38:56;2.78;;;1.50;;
72379;SDS011;60354;47.798;12.472;2023-07-13T14:41:22;3.55;;;1.60;;
72379;SDS011;60354;47.798;12.472;2023-07-13T14:43:48;2.72;;;1.23;;
72379;SDS011;60354;47.798;12.472;2023-07-13T14:49:03;2.00;;;1.50;;
72379;SDS011;60354;47.798;12.472;2023-07-13T14:51:31;3.78;;;1.38;;
72379;SDS011;60354;47.798;12.472;2023-07-13T14:54:00;2.80;;;1.40;;
72379;SDS011;60354;47.798;12.472;2023-07-13T14:56:30;3.90;;;1.30;;
72379;SDS011;60354;47.798;12.472;2023-07-13T14:58:55;3.83;;;1.40;;
72379;SDS011;60354;47.798;12.472;2023-07-13T15:01:21;4.38;;;1.30;;
72379;SDS011;60354;47.798;12.472;2023-07-13T15:03:48;3.13;;;1.42;;
72379;SDS011;60354;47.798;12.472;2023-07-13T15:06:16;3.38;;;1.75;;
72379;SDS011;60354;47.798;12.472;2023-07-13T15:08:42;2.25;;;1.30;;
72379;SDS011;60354;47.798;12.472;2023-07-13T15:11:08;4.88;;;1.30;;
72379;SDS011;60354;47.798;12.472;2023-07-13T15:13:37;4.43;;;1.50;;
72379;SDS011;60354;47.798;12.472;2023-07-13T15:19:01;2.35;;;1.17;;
72379;SDS011;60354;47.798;12.472;2023-07-13T15:21:27;2.63;;;1.50;;
72379;SDS011;60354;47.798;12.472;2023-07-13T15:23:59;2.08;;;1.30;;
72379;SDS011;60354;47.798;12.472;2023-07-13T15:26:26;2.05;;;1.20;;
72379;SDS011;60354;47.798;12.472;2023-07-13T15:28:51;1.90;;;1.17;;